createdAt,value
2023-01-08T00:00:08.994Z,6.64
2023-01-08T00:00:57.115Z,6.64
2023-01-08T00:01:38.764Z,6.54
2023-01-08T00:02:20.421Z,6.53
2023-01-08T00:03:02.307Z,6.34
2023-01-08T00:03:44.430Z,6.35
2023-01-08T00:04:26.753Z,6.43
2023-01-08T00:05:11.415Z,6.39
2023-01-08T00:05:53.187Z,6.35
2023-01-08T00:06:35.659Z,6.37
2023-01-08T00:07:17.431Z,6.29
2023-01-08T00:07:59.107Z,6.42
2023-01-08T00:08:41.668Z,6.33
2023-01-08T00:09:23.502Z,6.46
2023-01-08T00:10:05.732Z,6.29
2023-01-08T00:10:54.276Z,6.54
2023-01-08T00:11:36.064Z,6.52
2023-01-08T00:12:17.868Z,6.35
2023-01-08T00:12:59.517Z,6.21
2023-01-08T00:13:41.499Z,6.44
2023-01-08T00:14:23.180Z,6.43
2023-01-08T00:15:05.633Z,6.29
2023-01-08T00:15:47.577Z,6.36
2023-01-08T00:16:55.105Z,6.46
2023-01-08T00:17:36.827Z,6.47
2023-01-08T00:18:18.843Z,6.43
2023-01-08T00:19:00.715Z,6.47
2023-01-08T00:19:43.063Z,6.41
2023-01-08T00:20:25.660Z,6.48
2023-01-08T00:21:07.409Z,6.29
2023-01-08T00:21:49.043Z,6.47
2023-01-08T00:22:31.170Z,6.02
2023-01-08T00:23:14.238Z,6.41
2023-01-08T00:23:56.038Z,6.38
2023-01-08T00:24:37.794Z,6.34
2023-01-08T00:25:20.478Z,6.41
2023-01-08T00:26:03.653Z,6.29
2023-01-08T00:26:45.295Z,6.42
2023-01-08T00:27:27.343Z,6.43
2023-01-08T00:28:09.505Z,6.32
2023-01-08T00:28:51.252Z,6.47
2023-01-08T00:29:32.904Z,6.48
2023-01-08T00:30:14.615Z,6.51
2023-01-08T00:30:56.386Z,6.52
2023-01-08T00:31:38.140Z,6.53
2023-01-08T00:32:19.761Z,6.49
2023-01-08T00:33:01.521Z,6.50
2023-01-08T00:33:43.318Z,6.57
2023-01-08T00:34:25.008Z,6.47
2023-01-08T00:35:07.103Z,6.39
2023-01-08T00:35:48.858Z,6.58
2023-01-08T00:36:30.633Z,6.60
2023-01-08T00:37:12.398Z,6.50
2023-01-08T00:37:54.098Z,6.63
2023-01-08T00:38:35.973Z,6.62
2023-01-08T00:39:17.635Z,6.61
2023-01-08T00:39:59.233Z,6.57
2023-01-08T00:40:41.238Z,6.52
2023-01-08T00:41:22.976Z,6.58
2023-01-08T00:42:04.966Z,6.41
2023-01-08T00:42:47.442Z,6.43
2023-01-08T00:43:29.161Z,6.42
2023-01-08T00:44:10.934Z,6.39
2023-01-08T00:44:52.636Z,6.35
2023-01-08T00:45:34.616Z,6.15
2023-01-08T00:46:16.624Z,6.22
2023-01-08T00:46:58.405Z,6.32
2023-01-08T00:47:40.368Z,6.28
2023-01-08T00:48:23.298Z,6.32
2023-01-08T00:49:05.624Z,6.32
2023-01-08T00:50:12.665Z,6.31
2023-01-08T00:50:55.094Z,6.29
2023-01-08T00:51:36.842Z,6.27
2023-01-08T00:52:18.529Z,6.26
2023-01-08T00:53:00.836Z,6.20
2023-01-08T00:53:42.685Z,6.20
2023-01-08T00:54:24.381Z,6.21
2023-01-08T00:55:07.128Z,6.18
2023-01-08T00:55:49.660Z,6.09
2023-01-08T00:56:31.514Z,6.18
2023-01-08T00:57:13.280Z,6.04
2023-01-08T00:57:55.966Z,6.15
2023-01-08T00:58:39.088Z,6.15
2023-01-08T00:59:20.837Z,6.08
2023-01-08T01:00:06.096Z,6.04
2023-01-08T01:00:50.960Z,6.13
2023-01-08T01:01:35.949Z,5.40
2023-01-08T01:02:20.214Z,5.89
2023-01-08T01:03:04.401Z,5.91
2023-01-08T01:03:47.540Z,6.08
2023-01-08T01:04:31.375Z,6.08
2023-01-08T01:05:17.272Z,6.08
2023-01-08T01:06:07.103Z,5.93
2023-01-08T01:06:48.869Z,6.01
2023-01-08T01:07:32.609Z,6.07
2023-01-08T01:08:17.762Z,6.10
2023-01-08T01:09:33.711Z,6.15
2023-01-08T04:42:50.609Z,7.25
2023-01-08T04:43:32.354Z,7.44
2023-01-08T04:44:13.915Z,7.29
2023-01-08T04:44:55.635Z,7.45
2023-01-08T04:45:37.323Z,7.11
2023-01-08T04:46:18.973Z,7.30
2023-01-08T04:47:00.779Z,7.47
2023-01-08T04:47:42.453Z,7.43
2023-01-08T04:48:24.090Z,7.31
2023-01-08T04:49:05.804Z,7.23
2023-01-08T04:49:47.452Z,7.18
2023-01-08T04:50:29.099Z,7.23
2023-01-08T04:51:10.790Z,7.24
2023-01-08T04:51:52.454Z,7.18
2023-01-08T04:52:34.035Z,7.27
2023-01-08T04:53:15.630Z,7.25
2023-01-08T04:53:57.541Z,7.20
2023-01-08T04:54:39.156Z,7.30
2023-01-08T04:55:20.940Z,7.37
2023-01-08T04:56:05.223Z,7.41
2023-01-08T04:56:50.529Z,7.20
2023-01-08T04:57:32.925Z,7.37
2023-01-08T04:58:14.584Z,7.36
2023-01-08T04:58:56.199Z,7.26
2023-01-08T04:59:37.855Z,7.31
2023-01-08T05:00:19.521Z,7.40
2023-01-08T05:01:01.534Z,7.35
2023-01-08T05:01:43.348Z,7.41
2023-01-08T05:02:25.115Z,7.43
2023-01-08T05:03:06.867Z,7.45
2023-01-08T05:03:52.521Z,7.47
2023-01-08T05:04:34.220Z,7.24
2023-01-08T05:05:15.979Z,7.19
2023-01-08T05:06:00.851Z,7.42
2023-01-08T05:06:42.440Z,7.41
2023-01-08T05:07:24.016Z,7.07
2023-01-08T05:08:05.764Z,7.24
2023-01-08T05:08:47.501Z,7.14
2023-01-08T05:09:29.100Z,7.31
2023-01-08T05:10:10.787Z,7.36
2023-01-08T05:10:52.399Z,7.31
2023-01-08T05:11:35.507Z,7.42
2023-01-08T05:12:17.225Z,7.26
2023-01-08T05:13:01.882Z,7.40
2023-01-08T05:13:43.665Z,7.49
2023-01-08T05:14:25.331Z,7.35
2023-01-08T05:15:07.552Z,7.36
2023-01-08T05:15:49.244Z,7.44
2023-01-08T05:16:32.153Z,7.41
2023-01-08T05:17:13.888Z,7.22
2023-01-08T05:17:59.923Z,7.41
2023-01-08T05:18:41.616Z,7.31
2023-01-08T05:19:23.301Z,7.45
2023-01-08T05:20:05.289Z,7.35
2023-01-08T05:20:46.975Z,7.30
2023-01-08T05:21:28.629Z,7.52
2023-01-08T05:22:10.329Z,7.51
2023-01-08T05:22:52.095Z,7.50
2023-01-08T05:23:34.320Z,7.32
2023-01-08T05:24:16.090Z,7.43
2023-01-08T05:24:57.714Z,7.43
2023-01-08T05:25:39.314Z,7.28
2023-01-08T05:26:21.016Z,7.26
2023-01-08T05:27:02.606Z,7.34
2023-01-08T05:27:44.199Z,7.37
2023-01-08T05:28:26.411Z,7.24
2023-01-08T05:29:08.113Z,7.33
2023-01-08T05:29:51.003Z,7.23
2023-01-08T05:30:32.642Z,7.33
2023-01-08T05:31:14.729Z,7.18
2023-01-08T05:31:56.398Z,7.12
2023-01-08T05:32:38.023Z,7.26
2023-01-08T05:33:20.180Z,6.81
2023-01-08T05:34:01.940Z,7.23
2023-01-08T05:34:44.251Z,7.34
2023-01-08T05:35:25.903Z,7.34
2023-01-08T05:36:08.742Z,7.36
2023-01-08T05:36:50.413Z,7.38
2023-01-08T05:37:34.528Z,7.34
2023-01-08T05:38:16.213Z,7.35
2023-01-08T05:38:58.170Z,7.36
2023-01-08T05:39:39.780Z,7.27
2023-01-08T05:40:21.435Z,7.34
2023-01-08T05:41:03.422Z,7.10
2023-01-08T05:41:45.080Z,7.28
2023-01-08T05:42:26.803Z,7.26
2023-01-08T05:43:08.483Z,7.15
2023-01-08T05:43:50.208Z,7.13
2023-01-08T05:44:31.832Z,6.95
2023-01-08T05:45:15.588Z,7.07
2023-01-08T05:46:01.686Z,7.30
2023-01-08T05:46:43.421Z,7.35
2023-01-08T05:47:25.103Z,7.36
2023-01-08T05:48:07.636Z,7.34
2023-01-08T05:48:49.279Z,7.09
2023-01-08T05:49:30.907Z,7.22
2023-01-08T05:50:12.646Z,7.03
2023-01-08T05:50:54.293Z,7.26
2023-01-08T05:51:38.681Z,7.11
2023-01-08T05:52:20.365Z,6.95
2023-01-08T05:53:02.123Z,6.60
2023-01-08T05:53:43.750Z,7.11
2023-01-08T05:54:25.409Z,7.11
2023-01-08T05:55:07.312Z,7.10
2023-01-08T05:55:48.976Z,7.06
2023-01-08T05:56:30.663Z,7.13
2023-01-08T05:57:12.330Z,7.19
2023-01-08T05:57:54.032Z,7.27
2023-01-08T05:58:35.708Z,7.15
2023-01-08T05:59:17.345Z,7.24
2023-01-08T05:59:58.974Z,7.23
2023-01-08T06:00:40.598Z,7.07
2023-01-08T06:01:22.620Z,7.07
2023-01-08T06:02:04.239Z,7.13
2023-01-08T06:02:47.519Z,7.13
2023-01-08T06:03:29.215Z,7.13
2023-01-08T06:04:10.855Z,7.12
2023-01-08T06:04:52.634Z,7.03
2023-01-08T06:05:34.306Z,7.10
2023-01-08T06:06:16.712Z,7.00
2023-01-08T06:06:58.373Z,6.93
2023-01-08T06:07:39.991Z,7.13
2023-01-08T06:08:21.656Z,7.07
2023-01-08T06:09:03.564Z,7.02
2023-01-08T06:09:45.184Z,7.07
2023-01-08T06:10:27.339Z,7.03
2023-01-08T06:11:11.071Z,7.12
2023-01-08T06:11:53.128Z,7.18
2023-01-08T06:12:34.885Z,7.23
2023-01-08T06:13:16.583Z,7.21
2023-01-08T06:13:58.237Z,7.19
2023-01-08T06:14:39.854Z,7.18
2023-01-08T06:15:21.562Z,7.17
2023-01-08T06:16:03.462Z,7.00
2023-01-08T06:16:45.844Z,7.10
2023-01-08T06:17:27.446Z,7.19
2023-01-08T06:18:09.051Z,7.02
2023-01-08T06:18:50.884Z,7.24
2023-01-08T06:19:32.512Z,7.16
2023-01-08T06:20:14.093Z,7.18
2023-01-08T06:20:56.117Z,7.13
2023-01-08T06:21:38.271Z,7.13
2023-01-08T06:22:19.924Z,7.31
2023-01-08T06:23:01.519Z,7.33
2023-01-08T06:23:43.200Z,7.35
2023-01-08T06:24:24.868Z,7.38
2023-01-08T06:25:06.742Z,7.40
2023-01-08T06:25:53.838Z,7.43
2023-01-08T06:26:35.505Z,7.43
2023-01-08T06:27:17.134Z,7.45
2023-01-08T06:27:58.796Z,7.50
2023-01-08T06:28:40.445Z,7.47
2023-01-08T06:29:22.049Z,7.33
2023-01-08T06:30:04.640Z,7.49
2023-01-08T06:30:46.334Z,7.52
2023-01-08T06:31:28.074Z,7.54
2023-01-08T06:32:09.741Z,7.55
2023-01-08T06:32:58.406Z,7.55
2023-01-08T06:33:40.158Z,7.46
2023-01-08T06:34:21.846Z,7.53
2023-01-08T06:35:03.814Z,7.55
2023-01-08T06:35:45.445Z,7.39
2023-01-08T06:36:27.354Z,7.55
2023-01-08T06:37:08.954Z,7.48
2023-01-08T06:37:50.802Z,7.58
2023-01-08T06:38:34.359Z,7.43
2023-01-08T06:39:16.022Z,7.46
2023-01-08T06:39:57.595Z,7.45
2023-01-08T06:40:39.227Z,7.63
2023-01-08T06:41:20.855Z,7.63
2023-01-08T06:42:02.556Z,7.63
2023-01-08T06:42:44.594Z,7.58
2023-01-08T06:43:26.265Z,7.56
2023-01-08T06:44:08.184Z,7.57
2023-01-08T06:44:49.822Z,7.70
2023-01-08T06:45:32.576Z,7.50
2023-01-08T06:46:14.764Z,7.72
2023-01-08T06:46:59.722Z,7.68
2023-01-08T06:47:41.430Z,7.50
2023-01-08T06:48:23.031Z,7.64
2023-01-08T06:49:04.632Z,7.48
2023-01-08T06:49:46.306Z,7.60
2023-01-08T06:50:28.964Z,7.51
2023-01-08T06:51:10.628Z,7.57
2023-01-08T06:51:52.324Z,7.57
2023-01-08T06:52:33.976Z,7.58
2023-01-08T06:53:15.635Z,7.41
2023-01-08T06:53:57.288Z,7.58
2023-01-08T06:54:39.000Z,7.59
2023-01-08T06:55:21.711Z,7.54
2023-01-08T06:56:04.379Z,7.57
2023-01-08T06:56:53.782Z,7.64
2023-01-08T06:57:35.825Z,7.66
2023-01-08T06:58:17.407Z,7.53
2023-01-08T06:58:59.059Z,7.68
2023-01-08T06:59:40.706Z,7.68
2023-01-08T07:00:26.302Z,7.69
2023-01-08T07:01:13.768Z,7.62
2023-01-08T07:01:55.519Z,7.48
2023-01-08T07:02:37.390Z,7.73
2023-01-08T07:03:19.755Z,6.57
2023-01-08T07:04:01.396Z,7.35
2023-01-08T07:04:43.159Z,7.74
2023-01-08T07:05:24.796Z,7.74
2023-01-08T07:06:06.818Z,7.74
2023-01-08T07:06:48.664Z,7.74
2023-01-08T07:07:30.353Z,7.62
2023-01-08T07:08:14.829Z,7.71
2023-01-08T07:08:56.873Z,7.66
2023-01-08T07:09:38.475Z,7.32
2023-01-08T07:10:20.363Z,7.71
2023-01-08T07:11:06.472Z,7.70
2023-01-08T07:11:48.117Z,7.47
2023-01-08T07:12:29.747Z,7.58
2023-01-08T07:13:12.796Z,7.48
2023-01-08T07:13:55.758Z,7.58
2023-01-08T07:14:37.452Z,7.47
2023-01-08T07:15:19.104Z,7.46
2023-01-08T07:16:13.145Z,7.57
2023-01-08T07:16:54.735Z,7.48
2023-01-08T07:17:37.170Z,7.64
2023-01-08T07:18:18.801Z,7.60
2023-01-08T07:19:00.533Z,7.61
2023-01-08T07:19:43.645Z,7.36
2023-01-08T07:20:25.237Z,7.37
2023-01-08T07:21:07.853Z,7.44
2023-01-08T07:21:49.445Z,7.36
2023-01-08T07:22:31.224Z,7.41
2023-01-08T07:23:12.876Z,7.39
2023-01-08T07:23:54.556Z,7.48
2023-01-08T07:24:36.207Z,7.49
2023-01-08T07:25:17.933Z,7.40
2023-01-08T07:26:02.720Z,7.51
2023-01-08T07:26:44.395Z,7.45
2023-01-08T07:27:26.357Z,7.53
2023-01-08T07:28:12.652Z,7.51
2023-01-08T07:28:54.288Z,7.50
2023-01-08T07:29:35.893Z,7.52
2023-01-08T07:30:28.741Z,7.54
2023-01-08T07:31:10.885Z,7.58
2023-01-08T07:31:52.719Z,7.56
2023-01-08T07:32:34.339Z,7.54
2023-01-08T07:33:15.941Z,7.27
2023-01-08T07:33:57.524Z,7.39
2023-01-08T07:34:39.162Z,7.47
2023-01-08T07:35:20.831Z,7.45
2023-01-08T07:36:02.911Z,7.36
2023-01-08T07:36:44.680Z,7.42
2023-01-08T07:37:26.614Z,7.40
2023-01-08T07:38:08.229Z,7.41
2023-01-08T07:38:50.187Z,7.40
2023-01-08T07:39:32.183Z,7.41
2023-01-08T07:40:13.861Z,7.42
2023-01-08T07:40:57.643Z,7.37
2023-01-08T07:41:39.267Z,7.45
2023-01-08T07:42:20.920Z,7.51
2023-01-08T07:43:04.353Z,7.58
2023-01-08T07:43:48.146Z,7.49
2023-01-08T07:44:29.717Z,7.53
2023-01-08T07:45:11.609Z,7.68
2023-01-08T07:45:53.254Z,7.71
2023-01-08T07:46:34.997Z,7.72
2023-01-08T07:47:16.688Z,7.70
2023-01-08T07:47:58.982Z,7.54
2023-01-08T07:48:40.792Z,7.56
2023-01-08T07:49:22.410Z,7.57
2023-01-08T07:50:04.355Z,7.79
2023-01-08T07:50:46.067Z,7.82
2023-01-08T07:51:27.824Z,7.86
2023-01-08T07:52:09.496Z,7.79
2023-01-08T07:52:51.183Z,7.78
2023-01-08T07:53:33.329Z,7.94
2023-01-08T07:54:14.983Z,7.88
2023-01-08T07:54:56.559Z,7.80
2023-01-08T07:55:38.563Z,7.92
2023-01-08T07:56:20.193Z,7.96
2023-01-08T07:57:01.790Z,7.93
2023-01-08T07:57:43.420Z,8.03
2023-01-08T07:58:25.115Z,7.96
2023-01-08T07:59:06.699Z,7.99
2023-01-08T07:59:48.453Z,8.08
2023-01-08T08:00:30.095Z,7.96
2023-01-08T08:01:12.323Z,8.07
2023-01-08T08:01:54.195Z,7.97
2023-01-08T08:02:36.074Z,7.99
2023-01-08T08:03:17.808Z,8.03
2023-01-08T08:03:59.442Z,8.00
2023-01-08T08:04:41.033Z,7.94
2023-01-08T08:05:22.742Z,7.99
2023-01-08T08:06:04.589Z,8.01
2023-01-08T08:06:46.235Z,7.43
2023-01-08T08:07:30.881Z,7.78
2023-01-08T08:08:13.497Z,7.88
2023-01-08T08:08:57.308Z,7.83
2023-01-08T08:09:39.189Z,7.84
2023-01-08T08:10:20.835Z,7.89
2023-01-08T08:11:03.183Z,7.86
2023-01-08T08:11:44.814Z,7.83
2023-01-08T08:12:26.471Z,7.75
2023-01-08T08:13:08.467Z,7.80
2023-01-08T08:13:52.423Z,7.69
2023-01-08T08:14:36.002Z,7.80
2023-01-08T08:15:17.710Z,7.82
2023-01-08T08:16:04.078Z,7.86
2023-01-08T08:16:45.849Z,7.86
2023-01-08T08:17:27.516Z,7.84
2023-01-08T08:18:09.635Z,7.81
2023-01-08T08:18:51.241Z,7.80
2023-01-08T08:19:32.805Z,7.79
2023-01-08T08:20:15.066Z,7.78
2023-01-08T08:20:58.018Z,7.74
2023-01-08T08:21:39.755Z,7.78
2023-01-08T08:22:21.427Z,7.78
2023-01-08T08:23:05.183Z,7.81
2023-01-08T08:23:46.746Z,7.67
2023-01-08T08:24:28.348Z,7.88
2023-01-08T08:25:10.065Z,7.88
2023-01-08T08:25:52.164Z,7.90
2023-01-08T08:26:33.828Z,7.77
2023-01-08T08:27:15.414Z,7.92
2023-01-08T08:27:58.911Z,7.82
2023-01-08T08:28:40.584Z,7.93
2023-01-08T08:29:22.193Z,7.83
2023-01-08T08:30:06.047Z,7.58
2023-01-08T08:30:47.760Z,8.01
2023-01-08T08:31:29.542Z,7.94
2023-01-08T08:32:11.189Z,8.04
2023-01-08T08:32:53.734Z,8.01
2023-01-08T08:33:35.312Z,7.77
2023-01-08T08:34:16.906Z,7.93
2023-01-08T08:34:58.567Z,8.13
2023-01-08T08:35:40.950Z,8.15
2023-01-08T08:36:28.442Z,8.15
2023-01-08T08:37:10.056Z,8.15
2023-01-08T08:37:51.729Z,8.15
2023-01-08T08:38:33.615Z,8.16
2023-01-08T08:39:15.371Z,7.83
2023-01-08T08:39:56.917Z,8.15
2023-01-08T08:40:38.502Z,8.24
2023-01-08T08:41:20.133Z,8.21
2023-01-08T08:42:01.717Z,8.18
2023-01-08T08:42:43.303Z,8.26
2023-01-08T08:43:24.884Z,8.24
2023-01-08T08:44:06.509Z,8.27
2023-01-08T08:44:48.152Z,8.26
2023-01-08T08:45:29.903Z,8.29
2023-01-08T08:46:11.651Z,8.29
2023-01-08T08:46:53.347Z,8.29
2023-01-08T08:47:35.067Z,8.21
2023-01-08T08:48:16.854Z,8.26
2023-01-08T08:48:58.475Z,8.22
2023-01-08T08:49:40.216Z,8.22
2023-01-08T08:50:22.210Z,8.19
2023-01-08T08:51:04.443Z,8.18
2023-01-08T08:51:46.140Z,8.19
2023-01-08T08:52:29.376Z,8.20
2023-01-08T08:53:11.106Z,8.12
2023-01-08T08:53:52.840Z,8.13
2023-01-08T08:54:34.476Z,8.27
2023-01-08T08:55:17.462Z,8.29
2023-01-08T08:55:59.302Z,8.30
2023-01-08T08:56:40.925Z,8.33
2023-01-08T08:57:27.044Z,8.32
2023-01-08T08:58:11.721Z,8.34
2023-01-08T08:58:53.330Z,8.27
2023-01-08T08:59:35.249Z,7.99
2023-01-08T09:00:17.101Z,8.32
2023-01-08T09:01:03.751Z,8.29
2023-01-08T09:01:45.612Z,8.30
2023-01-08T09:02:27.447Z,8.26
2023-01-08T09:03:13.716Z,8.21
2023-01-08T09:03:55.383Z,8.21
2023-01-08T09:04:37.018Z,8.22
2023-01-08T09:05:18.666Z,8.09
2023-01-08T09:06:00.511Z,8.26
2023-01-08T09:06:44.238Z,8.18
2023-01-08T09:07:25.921Z,8.14
2023-01-08T09:08:07.656Z,8.18
2023-01-08T09:08:49.355Z,8.33
2023-01-08T09:09:31.069Z,8.34
2023-01-08T09:10:12.872Z,8.36
2023-01-08T09:10:54.581Z,8.37
2023-01-08T09:11:36.360Z,8.33
2023-01-08T09:12:18.040Z,8.38
2023-01-08T09:12:59.689Z,8.39
2023-01-08T09:13:41.289Z,8.27
2023-01-08T09:14:22.992Z,8.41
2023-01-08T09:15:05.378Z,8.32
2023-01-08T09:15:47.136Z,8.43
2023-01-08T09:16:28.848Z,8.33
2023-01-08T09:17:10.532Z,8.33
2023-01-08T09:17:56.599Z,8.48
2023-01-08T09:18:38.228Z,8.47
2023-01-08T09:19:19.932Z,8.39
2023-01-08T09:20:05.337Z,8.46
2023-01-08T09:20:48.103Z,8.47
2023-01-08T09:21:29.696Z,8.48
2023-01-08T09:22:11.321Z,8.40
2023-01-08T09:22:52.999Z,8.47
2023-01-08T09:23:35.580Z,8.35
2023-01-08T09:24:17.283Z,8.17
2023-01-08T09:24:58.936Z,8.30
2023-01-08T09:25:40.533Z,8.33
2023-01-08T09:26:22.141Z,8.25
2023-01-08T09:27:03.737Z,8.34
2023-01-08T09:27:45.648Z,8.33
2023-01-08T09:28:27.306Z,8.32
2023-01-08T09:29:09.022Z,8.30
2023-01-08T09:29:50.656Z,8.03
2023-01-08T09:30:33.171Z,8.24
2023-01-08T09:31:14.843Z,8.15
2023-01-08T09:31:57.422Z,8.30
2023-01-08T09:32:39.300Z,8.26
2023-01-08T09:33:20.977Z,8.11
2023-01-08T09:34:02.602Z,8.26
2023-01-08T09:34:44.250Z,8.33
2023-01-08T09:35:26.138Z,8.33
2023-01-08T09:36:14.022Z,8.34
2023-01-08T09:36:55.689Z,8.32
2023-01-08T09:37:37.387Z,8.32
2023-01-08T09:38:19.077Z,8.36
2023-01-08T09:39:01.306Z,8.24
2023-01-08T09:39:48.029Z,8.45
2023-01-08T09:40:37.960Z,8.42
2023-01-08T09:41:33.622Z,8.53
2023-01-08T09:42:16.386Z,8.55
2023-01-08T09:43:01.401Z,8.56
2023-01-08T09:43:46.915Z,8.56
2023-01-08T09:44:35.137Z,8.54
2023-01-08T09:45:33.241Z,8.55
2023-01-08T09:46:15.723Z,8.55
2023-01-08T09:46:58.332Z,8.45
2023-01-08T09:47:43.364Z,8.57
2023-01-08T09:48:31.188Z,8.58
2023-01-08T09:49:21.023Z,8.52
2023-01-08T09:50:06.932Z,8.55
2023-01-08T09:50:49.123Z,8.53
2023-01-08T09:51:38.304Z,8.52
2023-01-08T09:52:20.349Z,8.49
2023-01-08T09:53:02.465Z,8.48
2023-01-08T09:53:45.039Z,8.46
2023-01-08T09:54:27.344Z,8.39
2023-01-08T09:55:16.515Z,8.36
2023-01-08T09:56:10.212Z,8.44
2023-01-08T09:56:52.817Z,8.44
2023-01-08T09:57:34.511Z,8.29
2023-01-08T09:58:28.593Z,8.42
2023-01-08T09:59:16.634Z,8.43
2023-01-08T09:59:58.623Z,8.45
2023-01-08T10:00:40.308Z,8.49
2023-01-08T10:01:25.245Z,8.54
2023-01-08T10:02:15.346Z,8.48
2023-01-08T10:02:58.169Z,8.63
2023-01-08T10:03:44.172Z,8.67
2023-01-08T10:04:27.044Z,8.59
2023-01-08T10:05:15.300Z,8.74
2023-01-08T10:05:57.018Z,8.78
2023-01-08T10:06:40.603Z,8.74
2023-01-08T10:07:24.647Z,8.82
2023-01-08T10:08:06.377Z,8.83
2023-01-08T10:08:50.399Z,8.82
2023-01-08T10:09:33.178Z,8.81
2023-01-08T10:10:25.290Z,8.79
2023-01-08T10:11:09.029Z,8.76
2023-01-08T10:11:53.463Z,8.58
2023-01-08T10:12:35.174Z,8.61
2023-01-08T10:13:16.802Z,8.55
2023-01-08T10:13:58.497Z,8.73
2023-01-08T10:14:47.891Z,8.71
2023-01-08T10:15:29.620Z,8.77
2023-01-08T10:16:21.950Z,8.77
2023-01-08T10:17:30.877Z,8.84
2023-01-08T10:18:14.215Z,8.85
2023-01-08T10:18:56.707Z,8.85
2023-01-08T10:19:38.649Z,8.87
2023-01-08T10:20:23.353Z,8.79
2023-01-08T10:21:05.514Z,8.86
2023-01-08T10:21:47.201Z,8.84
2023-01-08T10:22:33.794Z,8.92
2023-01-08T10:23:18.173Z,8.99
2023-01-08T10:23:59.864Z,8.95
2023-01-08T10:24:41.494Z,9.05
2023-01-08T10:25:28.252Z,9.11
2023-01-08T10:26:09.891Z,9.16
2023-01-08T10:26:53.122Z,9.22
2023-01-08T10:27:50.359Z,9.19
2023-01-08T10:28:37.895Z,9.02
2023-01-08T10:29:19.562Z,9.22
2023-01-08T10:30:06.804Z,9.17
2023-01-08T10:30:50.086Z,9.13
2023-01-08T10:31:32.451Z,9.09
2023-01-08T10:32:19.063Z,9.07
2023-01-08T10:33:06.247Z,9.10
2023-01-08T10:33:49.391Z,9.09
2023-01-08T10:34:39.612Z,9.11
2023-01-08T10:35:28.918Z,9.14
2023-01-08T10:36:14.376Z,9.18
2023-01-08T10:36:56.680Z,9.14
2023-01-08T10:37:42.302Z,9.19
2023-01-08T10:38:28.320Z,9.29
2023-01-08T10:39:21.627Z,9.08
2023-01-08T10:40:37.660Z,9.30
2023-01-08T10:41:19.754Z,9.32
2023-01-08T10:42:06.571Z,9.26
2023-01-08T10:42:49.124Z,9.33
2023-01-08T10:43:37.549Z,9.30
2023-01-08T10:44:22.454Z,9.35
2023-01-08T10:45:07.793Z,9.38
2023-01-08T10:46:00.425Z,9.27
2023-01-08T10:46:48.249Z,9.45
2023-01-08T10:47:33.880Z,9.40
2023-01-08T10:48:18.341Z,9.54
2023-01-08T10:49:02.411Z,9.60
2023-01-08T10:49:45.426Z,9.59
2023-01-08T10:50:32.827Z,9.59
2023-01-08T10:51:33.269Z,9.58
2023-01-08T10:52:32.760Z,9.62
2023-01-08T10:53:26.235Z,9.67
2023-01-08T10:54:41.461Z,9.76
2023-01-08T10:55:23.072Z,9.83
2023-01-08T10:56:05.364Z,9.63
2023-01-08T10:56:47.015Z,9.85
2023-01-08T10:57:30.805Z,9.87
2023-01-08T10:58:15.142Z,9.89
2023-01-08T10:58:57.482Z,9.87
2023-01-08T10:59:42.270Z,9.80
2023-01-08T11:00:32.634Z,9.87
2023-01-08T11:01:32.869Z,9.73
2023-01-08T11:02:40.241Z,9.88
2023-01-08T11:03:32.711Z,9.84
2023-01-08T11:04:35.411Z,9.72
2023-01-08T11:05:17.430Z,9.73
2023-01-08T11:05:59.305Z,9.66
2023-01-08T11:06:47.116Z,9.81
2023-01-08T11:07:30.051Z,9.83
2023-01-08T11:08:17.890Z,9.60
2023-01-08T11:09:01.942Z,9.76
2023-01-08T11:09:48.573Z,9.77
2023-01-08T11:10:30.351Z,9.72
2023-01-08T11:11:12.242Z,9.78
2023-01-08T11:11:57.489Z,9.84
2023-01-08T11:12:41.045Z,9.68
2023-01-08T11:13:23.684Z,9.92
2023-01-08T11:14:14.793Z,9.78
2023-01-08T11:14:56.980Z,9.93
2023-01-08T11:15:41.224Z,9.96
2023-01-08T11:16:30.339Z,9.91
2023-01-08T11:17:12.893Z,9.98
2023-01-08T11:17:54.601Z,9.78
2023-01-08T11:18:47.797Z,9.98
2023-01-08T11:19:32.145Z,9.96
2023-01-08T11:20:29.554Z,9.99
2023-01-08T11:21:20.692Z,10.02
2023-01-08T11:22:17.869Z,10.06
2023-01-08T11:23:16.463Z,10.16
2023-01-08T11:24:23.647Z,10.23
2023-01-08T11:25:14.066Z,10.19
2023-01-08T11:26:10.157Z,10.17
2023-01-08T11:27:01.252Z,10.33
2023-01-08T11:27:45.393Z,10.37
2023-01-08T11:28:38.400Z,10.31
2023-01-08T11:29:30.959Z,10.26
2023-01-08T11:30:23.323Z,10.23
2023-01-08T11:31:19.196Z,10.46
2023-01-08T11:32:27.971Z,10.32
2023-01-08T11:33:16.831Z,10.27
2023-01-08T11:34:07.688Z,10.50
2023-01-08T11:35:04.721Z,10.58
2023-01-08T11:35:53.103Z,10.44
2023-01-08T11:36:43.914Z,10.53
2023-01-08T11:37:33.584Z,10.44
2023-01-08T11:38:15.694Z,10.51
2023-01-08T11:38:57.282Z,10.52
2023-01-08T11:39:39.179Z,10.50
2023-01-08T11:41:10.107Z,10.66
2023-01-08T11:42:10.094Z,10.75
2023-01-08T11:43:19.323Z,10.84
2023-01-08T11:44:23.741Z,10.83
2023-01-08T11:45:42.597Z,10.94
2023-01-08T11:46:56.420Z,11.00
2023-01-08T11:48:03.838Z,11.01
2023-01-08T11:49:16.349Z,11.04
2023-01-08T11:50:03.358Z,11.07
2023-01-08T11:51:15.310Z,11.05
2023-01-08T11:51:59.557Z,11.01
2023-01-08T11:52:48.546Z,10.88
2023-01-08T11:53:42.720Z,10.94
2023-01-08T11:54:37.843Z,10.94
2023-01-08T11:55:45.526Z,10.91
2023-01-08T11:56:30.301Z,10.84
2023-01-08T11:57:44.436Z,10.95
2023-01-08T11:58:46.306Z,11.04
2023-01-08T12:00:02.991Z,11.13
2023-01-08T12:01:11.319Z,11.12
2023-01-08T12:02:30.439Z,11.13
2023-01-08T12:03:42.224Z,11.10
2023-01-08T12:04:46.712Z,11.08
2023-01-08T12:05:36.509Z,11.00
2023-01-08T12:06:41.895Z,11.08
2023-01-08T12:07:29.420Z,11.19
2023-01-08T12:08:19.716Z,11.24
2023-01-08T12:09:18.945Z,11.29
2023-01-08T12:10:34.406Z,11.37
2023-01-08T12:11:15.989Z,11.34
2023-01-08T12:12:15.128Z,11.28
2023-01-08T12:13:03.236Z,11.09
2023-01-08T12:13:50.618Z,11.08
2023-01-08T12:15:07.427Z,11.01
2023-01-08T12:16:11.898Z,10.81
2023-01-08T12:17:12.337Z,10.97
2023-01-08T12:18:31.387Z,11.04
2023-01-08T12:19:22.067Z,11.11
2023-01-08T12:20:03.629Z,11.12
2023-01-08T12:21:03.287Z,11.16
2023-01-08T12:22:11.637Z,11.20
2023-01-08T12:23:07.694Z,11.08
2023-01-08T12:24:12.046Z,11.16
2023-01-08T12:25:11.910Z,11.16
2023-01-08T12:26:17.583Z,11.17
2023-01-08T12:27:09.474Z,11.18
2023-01-08T12:28:15.722Z,11.14
2023-01-08T12:29:35.113Z,11.06
2023-01-08T12:30:31.864Z,11.00
2023-01-08T12:32:02.950Z,10.87
2023-01-08T12:32:55.915Z,10.73
2023-01-08T12:33:43.549Z,10.77
2023-01-08T12:34:30.875Z,10.76
2023-01-08T12:35:17.130Z,10.76
2023-01-08T12:36:02.381Z,10.64
2023-01-08T12:36:49.961Z,10.77
2023-01-08T12:38:02.040Z,10.84
2023-01-08T12:38:50.181Z,10.84
2023-01-08T12:39:45.990Z,10.90
2023-01-08T12:40:33.535Z,11.04
2023-01-08T12:41:19.317Z,11.02
2023-01-08T12:42:11.274Z,11.22
2023-01-08T12:43:00.427Z,11.26
2023-01-08T12:44:04.940Z,11.28
2023-01-08T12:44:47.662Z,11.27
2023-01-08T12:45:32.381Z,11.24
2023-01-08T12:46:17.022Z,11.13
2023-01-08T12:47:02.578Z,11.06
2023-01-08T12:47:50.994Z,10.96
2023-01-08T12:48:36.639Z,10.97
2023-01-08T12:49:29.834Z,10.93
2023-01-08T12:50:14.506Z,10.90
2023-01-08T12:51:28.425Z,10.90
2023-01-08T12:52:20.744Z,10.91
2023-01-08T12:53:13.899Z,10.88
2023-01-08T12:54:27.897Z,10.89
2023-01-08T12:55:35.676Z,10.86
2023-01-08T12:57:16.516Z,10.68
2023-01-08T12:58:12.349Z,10.82
2023-01-08T12:59:07.093Z,10.68
2023-01-08T12:59:59.910Z,10.85
2023-01-08T13:00:51.839Z,10.87
2023-01-08T13:01:36.374Z,10.90
2023-01-08T13:02:49.289Z,10.91
2023-01-08T13:03:34.292Z,10.88
2023-01-08T13:04:16.632Z,10.87
2023-01-08T13:04:58.484Z,10.93
2023-01-08T13:05:42.241Z,10.80
2023-01-08T13:06:24.259Z,10.90
2023-01-08T13:07:06.074Z,10.95
2023-01-08T13:07:54.288Z,10.95
2023-01-08T13:08:38.046Z,10.94
2023-01-08T13:09:24.627Z,10.92
2023-01-08T13:10:19.079Z,10.90
2023-01-08T13:11:01.584Z,10.86
2023-01-08T13:11:50.848Z,10.84
2023-01-08T13:12:40.939Z,10.90
2023-01-08T13:13:32.037Z,10.81
2023-01-08T13:14:13.968Z,10.82
2023-01-08T13:14:55.720Z,10.91
2023-01-08T13:15:37.573Z,10.92
2023-01-08T13:16:22.647Z,10.94
2023-01-08T13:17:07.876Z,10.84
2023-01-08T13:17:51.046Z,10.89
2023-01-08T13:18:33.374Z,10.85
2023-01-08T13:19:31.467Z,10.97
2023-01-08T13:20:30.370Z,10.97
2023-01-08T13:21:12.826Z,10.98
2023-01-08T13:21:57.304Z,11.04
2023-01-08T13:22:39.402Z,10.88
2023-01-08T13:23:34.869Z,11.07
2023-01-08T13:24:31.918Z,11.08
2023-01-08T13:25:20.061Z,11.13
2023-01-08T13:26:04.849Z,11.10
2023-01-08T13:26:46.634Z,11.15
2023-01-08T13:27:29.558Z,11.19
2023-01-08T13:28:29.786Z,11.21
2023-01-08T13:29:35.545Z,11.22
2023-01-08T13:30:42.471Z,11.16
2023-01-08T13:31:28.030Z,11.26
2023-01-08T13:32:47.407Z,11.32
2023-01-08T13:33:34.972Z,11.33
2023-01-08T13:34:38.808Z,11.35